createdAt,value
2022-08-30T00:02:50.809Z,75.7
2022-08-30T00:07:50.680Z,75.7
2022-08-30T00:12:50.726Z,75.8
2022-08-30T00:17:50.667Z,75.7
2022-08-30T00:22:50.673Z,75.6
2022-08-30T00:27:50.673Z,75.6
2022-08-30T00:32:50.667Z,75.6
2022-08-30T00:37:50.674Z,75.6
2022-08-30T00:42:51.322Z,75.8
2022-08-30T00:47:50.673Z,75.8
2022-08-30T00:52:50.698Z,75.7
2022-08-30T00:57:50.668Z,75.7
2022-08-30T01:02:50.766Z,75.6
2022-08-30T01:07:50.683Z,75.3
2022-08-30T01:12:50.683Z,75.2
2022-08-30T01:17:50.681Z,75.0
2022-08-30T01:22:50.699Z,74.9
2022-08-30T01:27:50.679Z,74.8
2022-08-30T01:32:50.687Z,74.7
2022-08-30T01:37:50.686Z,74.7
2022-08-30T01:42:50.704Z,74.8
2022-08-30T01:47:50.678Z,74.9
2022-08-30T01:52:50.717Z,75.0
2022-08-30T01:57:50.697Z,74.8
2022-08-30T02:02:50.682Z,74.9
2022-08-30T02:07:50.699Z,74.9
2022-08-30T02:12:50.684Z,74.9
2022-08-30T02:17:50.707Z,74.9
2022-08-30T02:22:50.700Z,75.1
2022-08-30T02:27:50.704Z,75.1
2022-08-30T02:32:50.694Z,75.1
2022-08-30T02:37:50.715Z,75.2
2022-08-30T02:42:50.694Z,75.2
2022-08-30T02:47:50.712Z,75.1
2022-08-30T02:52:50.718Z,75.2
2022-08-30T02:57:50.707Z,75.3
2022-08-30T03:02:50.704Z,75.2
2022-08-30T03:07:50.715Z,75.1
2022-08-30T03:12:50.678Z,75.2
2022-08-30T03:17:50.712Z,75.2
2022-08-30T03:22:50.714Z,75.1
2022-08-30T03:27:50.780Z,75.1
2022-08-30T03:32:50.718Z,75.1
2022-08-30T03:37:55.873Z,74.9
2022-08-30T03:42:50.730Z,74.9
2022-08-30T03:47:50.742Z,74.7
2022-08-30T03:52:50.725Z,74.7
2022-08-30T03:57:50.724Z,74.7
2022-08-30T04:02:50.726Z,74.8
2022-08-30T04:07:50.737Z,74.9
2022-08-30T04:12:50.715Z,75.1
2022-08-30T04:17:50.729Z,75.4
2022-08-30T04:22:50.729Z,75.7
2022-08-30T04:27:50.743Z,75.8
2022-08-30T04:32:52.710Z,75.8
2022-08-30T04:37:50.733Z,75.9
2022-08-30T04:42:50.739Z,76.1
2022-08-30T04:47:50.744Z,76.2
2022-08-30T04:52:50.738Z,76.3
2022-08-30T04:57:50.744Z,76.5
2022-08-30T05:02:50.831Z,76.7
2022-08-30T05:07:50.742Z,77.0
2022-08-30T05:12:50.735Z,77.0
2022-08-30T05:17:50.750Z,77.1
2022-08-30T05:22:53.788Z,77.0
2022-08-30T05:27:50.756Z,77.2
2022-08-30T05:32:50.742Z,77.2
2022-08-30T05:37:50.744Z,77.3
2022-08-30T05:42:50.755Z,77.2
2022-08-30T05:47:50.746Z,77.2
2022-08-30T05:52:50.759Z,76.2
2022-08-30T05:57:50.721Z,74.6
2022-08-30T06:02:50.839Z,73.1
2022-08-30T06:07:50.749Z,71.8
2022-08-30T06:12:50.744Z,70.4
2022-08-30T06:17:50.761Z,69.3
2022-08-30T06:22:50.755Z,68.1
2022-08-30T06:27:55.874Z,67.1
2022-08-30T06:32:50.756Z,66.3
2022-08-30T06:37:50.764Z,65.1
2022-08-30T06:42:50.756Z,64.4
2022-08-30T06:47:50.808Z,63.4
2022-08-30T06:52:50.714Z,62.2
2022-08-30T06:57:50.783Z,61.1
2022-08-30T07:02:50.829Z,60.9
2022-08-30T07:07:50.770Z,60.4
2022-08-30T07:12:50.756Z,59.0
2022-08-30T07:17:50.777Z,59.5
2022-08-30T07:22:50.769Z,59.1
2022-08-30T07:27:50.769Z,58.5
2022-08-30T07:32:50.779Z,58.3
2022-08-30T07:37:50.786Z,57.7
2022-08-30T07:42:50.734Z,58.0
2022-08-30T07:47:50.777Z,57.6
2022-08-30T07:52:50.765Z,57.3
2022-08-30T07:57:50.825Z,56.7
2022-08-30T08:02:50.847Z,56.4
2022-08-30T08:07:50.776Z,57.0
2022-08-30T08:12:52.157Z,57.9
2022-08-30T08:17:50.779Z,58.0
2022-08-30T08:22:50.762Z,57.4
2022-08-30T08:27:50.786Z,57.1
2022-08-30T08:32:50.784Z,56.4
2022-08-30T08:37:50.776Z,54.3
2022-08-30T08:42:50.767Z,54.3
2022-08-30T08:47:50.785Z,52.7
2022-08-30T08:52:50.768Z,52.5
2022-08-30T08:57:50.777Z,52.3
2022-08-30T09:02:55.207Z,52.0
2022-08-30T09:07:50.780Z,51.1
2022-08-30T09:12:50.774Z,50.3
2022-08-30T09:17:50.785Z,51.6
2022-08-30T09:22:50.774Z,52.0
2022-08-30T09:27:50.784Z,51.7
2022-08-30T09:32:50.783Z,51.7
2022-08-30T09:37:50.781Z,51.9
2022-08-30T09:42:50.775Z,49.6
2022-08-30T09:47:50.791Z,48.9
2022-08-30T09:52:54.645Z,48.4
2022-08-30T09:57:50.784Z,48.8
2022-08-30T10:02:50.784Z,49.0
2022-08-30T10:07:50.815Z,49.0
2022-08-30T10:12:50.768Z,50.5
2022-08-30T10:17:50.795Z,50.6
2022-08-30T10:22:50.787Z,48.8
2022-08-30T10:27:50.780Z,49.0
2022-08-30T10:32:50.796Z,48.8
2022-08-30T10:37:51.380Z,48.0
2022-08-30T10:42:50.789Z,48.7
2022-08-30T10:47:50.843Z,48.1
2022-08-30T10:52:50.800Z,48.1
2022-08-30T10:57:50.805Z,48.8
2022-08-30T11:02:50.795Z,47.4
2022-08-30T11:07:52.099Z,48.1
2022-08-30T11:12:50.785Z,48.4
2022-08-30T11:17:50.802Z,49.0
2022-08-30T11:22:50.787Z,49.4
2022-08-30T11:27:51.308Z,49.7
2022-08-30T11:32:50.806Z,49.0
2022-08-30T11:37:50.812Z,49.1
2022-08-30T11:42:50.806Z,48.0
2022-08-30T11:47:50.814Z,48.0
2022-08-30T11:52:50.811Z,47.8
2022-08-30T11:57:50.804Z,48.0
2022-08-30T12:02:50.914Z,47.7
2022-08-30T12:07:50.822Z,47.7
2022-08-30T12:12:51.013Z,47.2
2022-08-30T12:17:51.000Z,46.8
2022-08-30T12:22:50.801Z,46.5
2022-08-30T12:27:50.809Z,46.7
2022-08-30T12:32:50.979Z,47.0
2022-08-30T12:37:50.811Z,46.6
2022-08-30T12:42:50.821Z,46.6
2022-08-30T12:47:50.814Z,46.9
2022-08-30T12:52:50.808Z,47.1
2022-08-30T12:57:50.823Z,47.2
2022-08-30T13:02:50.805Z,47.4
2022-08-30T13:07:50.828Z,47.7
2022-08-30T13:12:50.817Z,48.3
2022-08-30T13:17:50.812Z,48.9
2022-08-30T13:22:50.828Z,49.3
2022-08-30T13:27:50.820Z,49.2
2022-08-30T13:32:50.822Z,49.3
2022-08-30T13:37:51.511Z,49.3
2022-08-30T13:42:50.835Z,49.8
2022-08-30T13:47:50.825Z,50.2
2022-08-30T13:52:50.837Z,49.7
2022-08-30T13:57:54.819Z,49.8
2022-08-30T14:02:54.411Z,49.7
2022-08-30T14:07:50.831Z,49.6
2022-08-30T14:12:57.342Z,49.6
2022-08-30T14:17:50.838Z,50.2
2022-08-30T14:22:50.840Z,50.6
2022-08-30T14:27:50.843Z,51.0
2022-08-30T14:32:50.829Z,51.5
2022-08-30T14:37:50.846Z,51.6
2022-08-30T14:42:50.835Z,52.0
2022-08-30T14:47:50.833Z,53.2
2022-08-30T14:52:50.847Z,53.6
2022-08-30T14:57:50.819Z,53.8
2022-08-30T15:02:50.848Z,53.8
2022-08-30T15:07:50.875Z,54.1
2022-08-30T15:12:50.831Z,54.3
2022-08-30T15:17:50.849Z,54.4
2022-08-30T15:22:50.855Z,54.9
2022-08-30T15:27:50.847Z,54.9
2022-08-30T15:32:50.859Z,54.9
2022-08-30T15:37:50.852Z,54.9
2022-08-30T15:42:50.843Z,55.2
2022-08-30T15:47:50.859Z,55.9
2022-08-30T15:52:50.863Z,55.9
2022-08-30T15:57:50.865Z,56.0
2022-08-30T16:02:50.846Z,56.2
2022-08-30T16:07:50.859Z,56.8
2022-08-30T16:12:50.850Z,57.9
2022-08-30T16:17:50.871Z,58.9
2022-08-30T16:22:50.823Z,60.2
2022-08-30T16:27:50.873Z,60.1
2022-08-30T16:32:50.857Z,60.5
2022-08-30T16:37:50.866Z,61.0
2022-08-30T16:42:50.840Z,60.8
2022-08-30T16:47:50.880Z,60.2
2022-08-30T16:52:50.844Z,60.1
2022-08-30T16:57:50.861Z,60.2
2022-08-30T17:02:53.986Z,60.2
2022-08-30T17:07:50.864Z,60.6
2022-08-30T17:12:50.853Z,61.6
2022-08-30T17:17:50.870Z,61.5
2022-08-30T17:22:50.876Z,61.6
2022-08-30T17:27:50.854Z,61.5
2022-08-30T17:32:50.866Z,61.5
2022-08-30T17:37:51.229Z,61.8
2022-08-30T17:42:50.869Z,62.4
2022-08-30T17:47:50.874Z,62.6
2022-08-30T17:52:50.877Z,62.7
2022-08-30T17:57:51.061Z,63.1
2022-08-30T18:02:50.922Z,63.7
2022-08-30T18:07:50.877Z,64.3
2022-08-30T18:12:50.862Z,64.4
2022-08-30T18:17:50.881Z,65.4
2022-08-30T18:22:50.859Z,67.7
2022-08-30T18:27:58.288Z,67.6
2022-08-30T18:32:50.929Z,67.6
2022-08-30T18:37:50.872Z,68.3
2022-08-30T18:42:50.885Z,68.5
2022-08-30T18:47:50.889Z,68.7
2022-08-30T18:52:50.896Z,68.8
2022-08-30T18:57:51.069Z,68.9
2022-08-30T19:02:50.900Z,69.3
2022-08-30T19:07:50.885Z,69.1
2022-08-30T19:12:50.881Z,68.9
2022-08-30T19:17:50.896Z,69.0
2022-08-30T19:23:09.514Z,69.2
2022-08-30T19:27:50.916Z,69.7
2022-08-30T19:32:50.889Z,69.8
2022-08-30T19:37:50.890Z,69.5
2022-08-30T19:42:50.887Z,69.8
2022-08-30T19:47:50.886Z,69.8
2022-08-30T19:52:54.032Z,70.2
2022-08-30T19:57:50.904Z,71.1
2022-08-30T20:02:51.415Z,72.4
2022-08-30T20:07:51.525Z,73.2
2022-08-30T20:12:50.880Z,74.2
2022-08-30T20:18:05.117Z,74.4
2022-08-30T20:22:54.154Z,74.5
2022-08-30T20:27:50.889Z,74.6
2022-08-30T20:32:50.883Z,75.0
2022-08-30T20:37:50.902Z,75.2
2022-08-30T20:42:50.885Z,75.1
2022-08-30T20:47:50.898Z,75.0
2022-08-30T20:52:50.877Z,74.8
2022-08-30T20:57:50.900Z,75.0
2022-08-30T21:02:50.971Z,75.3
2022-08-30T21:07:50.900Z,75.6
2022-08-30T21:12:50.895Z,75.7
2022-08-30T21:17:50.898Z,76.0
2022-08-30T21:22:50.884Z,76.5
2022-08-30T21:27:50.903Z,76.8
2022-08-30T21:32:50.887Z,77.5
2022-08-30T21:37:50.902Z,78.6
2022-08-30T21:42:50.894Z,79.8
2022-08-30T21:47:50.898Z,80.2
2022-08-30T21:52:50.885Z,80.8
2022-08-30T21:57:50.889Z,81.3
2022-08-30T22:02:53.039Z,82.0
2022-08-30T22:07:50.885Z,82.5
2022-08-30T22:12:50.898Z,82.6
2022-08-30T22:17:50.903Z,83.2
2022-08-30T22:22:50.897Z,83.6
2022-08-30T22:27:50.910Z,83.8
2022-08-30T22:32:51.508Z,84.3
2022-08-30T22:37:53.017Z,84.5
2022-08-30T22:42:50.901Z,84.8
2022-08-30T22:47:50.910Z,84.9
2022-08-30T22:52:50.892Z,84.9
2022-08-30T22:57:50.900Z,85.0
2022-08-30T23:02:51.002Z,85.1
2022-08-30T23:07:50.897Z,85.3
2022-08-30T23:12:50.899Z,85.8
2022-08-30T23:17:50.901Z,86.1
2022-08-30T23:22:50.899Z,86.1
2022-08-30T23:27:50.902Z,86.5
2022-08-30T23:32:50.893Z,86.9
2022-08-30T23:37:53.245Z,86.7
2022-08-30T23:42:50.912Z,87.0
2022-08-30T23:47:50.895Z,87.2
2022-08-30T23:52:50.893Z,87.4
2022-08-30T23:57:50.907Z,87.5
